Time;durP1;ratioP1;P1;durP2;ratioP2;P2;SDS_P1;SDS_P2;PMS_P1;PMS_P2;Temp;Humidity;BMP_temperature;BMP_pressure;BME280_temperature;BME280_humidity;BME280_pressure;Samples;Min_cycle;Max_cycle;Signal;HPM_P1;HPM_P2
2022/09/05 00:01:35;;;;;;;8.48;4.17;;;;;;;13.97;51.67;101368.95;1735825;80;21118;-45
2022/09/05 00:04:16;;;;;;;8.18;4.78;;;;;;;13.96;50.86;101364.16;1733410;80;21061;-45
2022/09/05 00:07:08;;;;;;;8.75;4.90;;;;;;;13.97;50.66;101363.66;1729120;80;21058;-46
2022/09/05 00:09:50;;;;;;;10.03;4.72;;;;;;;13.97;50.41;101361.02;1724426;80;21008;-48
2022/09/05 00:12:18;;;;;;;8.68;5.20;;;;;;;13.98;48.59;101364.87;1723386;80;21103;-48
2022/09/05 00:15:23;;;;;;;10.50;5.20;;;;;;;13.93;47.50;101361.25;1736962;80;21486;-48
2022/09/05 00:18:07;;;;;;;10.80;5.85;;;;;;;13.89;47.36;101361.14;1722914;80;22605;-48
2022/09/05 00:20:49;;;;;;;10.90;5.85;;;;;;;13.87;47.02;101356.47;1730134;80;21131;-48
2022/09/05 00:23:40;;;;;;;10.25;5.97;;;;;;;13.86;46.68;101352.13;1729931;80;21055;-48
2022/09/05 00:26:38;;;;;;;10.60;6.05;;;;;;;13.84;46.78;101352.73;1730281;80;21062;-47
2022/09/05 00:29:59;;;;;;;10.80;6.05;;;;;;;13.84;47.43;101349.25;1734777;80;21110;-48
2022/09/05 00:32:54;;;;;;;11.48;5.75;;;;;;;13.84;47.65;101347.44;1736613;80;21126;-46
2022/09/05 00:35:52;;;;;;;13.75;6.65;;;;;;;13.84;47.58;101340.00;1732019;80;22739;-48
2022/09/05 00:38:24;;;;;;;10.48;5.72;;;;;;;13.83;47.87;101335.16;1738565;80;21075;-46
2022/09/05 00:41:05;;;;;;;8.98;5.08;;;;;;;13.87;48.47;101339.27;1735742;80;21062;-46
2022/09/05 00:43:43;;;;;;;11.48;6.05;;;;;;;13.90;48.91;101329.77;1730138;80;21063;-47
2022/09/05 00:46:24;;;;;;;9.75;6.12;;;;;;;13.97;48.76;101325.30;1732150;80;21102;-47
2022/09/05 00:49:08;;;;;;;11.08;6.25;;;;;;;14.00;48.45;101325.89;1732184;80;21150;-47
2022/09/05 00:52:08;;;;;;;10.40;5.65;;;;;;;14.02;47.85;101325.77;1735285;80;21023;-46
2022/09/05 00:55:21;;;;;;;10.32;5.65;;;;;;;14.01;47.15;101322.29;1667031;85;21100;-48
2022/09/05 00:58:37;;;;;;;11.05;5.92;;;;;;;13.99;47.05;101323.39;1668063;84;21070;-47
2022/09/05 01:01:12;;;;;;;11.22;5.42;;;;;;;14.00;47.18;101319.77;1675284;83;21119;-49
2022/09/05 01:04:21;;;;;;;10.88;5.58;;;;;;;14.03;48.18;101319.03;1626402;83;21226;-48
2022/09/05 01:07:14;;;;;;;8.03;5.05;;;;;;;14.08;48.70;101323.47;1677551;83;21114;-48
2022/09/05 01:10:06;;;;;;;10.18;5.67;;;;;;;14.12;48.38;101315.66;1732735;80;21009;-48
2022/09/05 01:13:16;;;;;;;11.40;6.10;;;;;;;14.17;48.08;101309.15;1728994;80;21042;-47
2022/09/05 01:16:03;;;;;;;10.88;6.05;;;;;;;14.20;47.70;101310.23;1721605;80;21538;-47
2022/09/05 01:19:11;;;;;;;9.60;5.50;;;;;;;14.17;47.47;101307.83;1733283;80;21217;-47
2022/09/05 01:22:07;;;;;;;11.65;5.42;;;;;;;14.17;48.17;101309.15;1724283;80;21024;-47
2022/09/05 01:25:03;;;;;;;9.30;5.03;;;;;;;14.18;48.65;101311.67;1732392;80;21047;-50
2022/09/05 01:27:54;;;;;;;9.88;5.42;;;;;;;14.17;49.02;101306.50;1742745;80;21193;-47
2022/09/05 01:30:26;;;;;;;9.18;5.78;;;;;;;14.13;49.58;101313.85;1748356;80;21012;-48
2022/09/05 01:33:11;;;;;;;9.38;5.62;;;;;;;14.08;49.06;101306.27;1749846;80;21128;-48
2022/09/05 01:35:52;;;;;;;10.38;5.33;;;;;;;14.08;50.01;101308.92;1743254;80;21513;-48
2022/09/05 01:38:44;;;;;;;8.60;4.97;;;;;;;14.09;50.96;101303.17;1750823;80;21402;-48
2022/09/05 01:44:22;;;;;;;9.50;5.12;;;;;;;14.10;51.05;101296.43;1861774;74;21918;-46
2022/09/05 01:47:06;;;;;;;8.15;5.17;;;;;;;14.09;51.10;101307.14;1832406;76;21103;-47
2022/09/05 01:49:59;;;;;;;9.78;5.05;;;;;;;14.04;51.02;101296.91;1794080;76;21087;-47
2022/09/05 01:52:33;;;;;;;9.23;4.58;;;;;;;14.02;50.77;101294.02;1760473;79;21090;-47
2022/09/05 01:55:39;;;;;;;9.60;4.60;;;;;;;14.01;51.07;101293.67;1762209;78;21050;-47
2022/09/05 01:58:25;;;;;;;8.60;4.60;;;;;;;14.00;50.98;101294.13;1763212;80;21140;-48
2022/09/05 02:01:01;;;;;;;;;;;;;;;13.97;51.47;101293.09;1770635;78;21026;-48
2022/09/05 02:03:51;;;;;;;8.98;5.17;;;;;;;13.93;51.88;101290.31;1776685;80;21137;-46
2022/09/05 02:06:29;;;;;;;9.40;4.53;;;;;;;13.87;52.34;101290.78;1769410;78;20996;-47
2022/09/05 02:09:39;;;;;;;8.38;5.25;;;;;;;13.84;52.57;101289.23;1767920;80;21025;-48
2022/09/05 02:12:26;;;;;;;8.50;4.70;;;;;;;13.82;52.91;101289.85;1770796;78;21066;-46
2022/09/05 02:15:07;;;;;;;7.55;4.80;;;;;;;13.80;53.44;101287.81;1763013;79;21551;-47
2022/09/05 02:17:45;;;;;;;9.20;4.90;;;;;;;13.75;54.13;101281.56;1767186;78;21126;-47
2022/09/05 02:20:41;;;;;;;7.72;4.95;;;;;;;13.71;54.71;101286.72;1771197;78;21060;-47
2022/09/05 02:23:40;;;;;;;9.38;4.42;;;;;;;13.69;55.15;101278.56;1771570;79;21011;-46
2022/09/05 02:26:23;;;;;;;8.90;4.92;;;;;;;13.65;55.25;101279.75;1769457;80;21677;-46
2022/09/05 02:28:57;;;;;;;8.43;5.28;;;;;;;13.61;54.75;101283.11;1768953;78;21059;-47
2022/09/05 02:31:46;;;;;;;8.60;5.47;;;;;;;13.58;54.28;101279.88;1770693;80;21255;-48
2022/09/05 02:34:40;;;;;;;8.40;4.90;;;;;;;13.54;54.24;101276.14;1773864;80;21074;-47
2022/09/05 02:37:36;;;;;;;9.70;4.67;;;;;;;13.52;54.45;101282.04;1770331;78;21025;-46
2022/09/05 02:40:27;;;;;;;9.50;5.05;;;;;;;13.50;53.65;101288.39;1771189;78;21698;-47
2022/09/05 02:43:15;;;;;;;9.83;5.20;;;;;;;13.51;53.72;101289.59;1779701;79;21562;-46
2022/09/05 02:46:08;;;;;;;8.73;5.35;;;;;;;13.54;53.40;101285.89;1782719;78;21553;-47
2022/09/05 02:48:55;;;;;;;8.68;5.03;;;;;;;13.58;52.42;101285.99;1794838;78;21054;-47
2022/09/05 02:51:45;;;;;;;10.68;5.12;;;;;;;13.62;52.12;101281.33;1683704;83;21108;-48
2022/09/05 02:54:18;;;;;;;9.15;5.20;;;;;;;13.64;51.44;101289.49;1737342;80;21092;-48
2022/09/05 02:57:10;;;;;;;8.95;5.42;;;;;;;13.67;50.41;101283.14;1765619;79;21256;-48
2022/09/05 03:00:00;;;;;;;8.23;5.10;;;;;;;13.68;49.95;101274.22;1753584;78;21241;-46
2022/09/05 03:03:02;;;;;;;9.38;5.25;;;;;;;13.68;49.53;101276.86;1776047;78;22158;-47
2022/09/05 03:05:56;;;;;;;8.55;5.25;;;;;;;13.70;49.60;101282.86;1756417;79;21058;-47
2022/09/05 03:08:58;;;;;;;10.82;5.25;;;;;;;13.70;49.35;101278.44;1758187;79;21073;-47
2022/09/05 03:11:59;;;;;;;9.20;4.85;;;;;;;13.69;49.39;101272.78;1799593;78;21478;-47
2022/09/05 03:14:37;;;;;;;7.72;3.95;;;;;;;13.69;48.77;101272.78;1776765;78;21434;-48
2022/09/05 03:17:42;;;;;;;10.03;5.17;;;;;;;13.68;48.87;101270.25;1773194;78;21065;-48
2022/09/05 03:21:00;;;;;;;10.85;5.10;;;;;;;13.66;48.65;101266.89;1718586;81;21203;-47
2022/09/05 03:24:04;;;;;;;8.70;5.12;;;;;;;13.63;48.83;101278.54;1774807;78;21373;-47
2022/09/05 03:27:10;;;;;;;9.45;4.37;;;;;;;13.58;48.31;101279.88;1775494;78;21023;-47
2022/09/05 03:29:58;;;;;;;9.18;4.55;;;;;;;13.50;48.73;101273.85;1769208;78;21158;-45
2022/09/05 03:32:56;;;;;;;8.73;4.65;;;;;;;13.46;48.91;101281.19;1780743;78;21013;-45
2022/09/05 03:35:54;;;;;;;7.85;4.25;;;;;;;13.45;48.01;101290.09;1779883;78;21628;-47
2022/09/05 03:38:41;;;;;;;8.13;4.53;;;;;;;13.47;47.69;101283.38;1784591;78;21001;-47
2022/09/05 03:41:44;;;;;;;7.85;3.90;;;;;;;13.48;47.34;101288.55;1771603;78;21114;-47
2022/09/05 03:44:41;;;;;;;9.98;4.83;;;;;;;13.50;47.33;101282.65;1776939;78;21924;-47
2022/09/05 03:47:31;;;;;;;;;;;;;;;13.52;47.10;101280.72;1782749;78;21741;-47
2022/09/05 03:50:25;;;;;;;10.18;4.72;;;;;;;13.54;46.70;101286.72;1765652;78;20209;-48
2022/09/05 03:53:17;;;;;;;8.88;5.22;;;;;;;13.51;46.83;101284.31;1767408;78;21465;-46
2022/09/05 03:55:55;;;;;;;9.18;5.05;;;;;;;13.47;46.51;101281.56;1777247;78;21542;-47
2022/09/05 03:58:39;;;;;;;10.03;4.97;;;;;;;13.45;46.49;101271.59;1773805;78;21132;-48
2022/09/05 04:01:19;;;;;;;8.18;4.85;;;;;;;13.46;46.77;101271.93;1769310;78;21087;-47
2022/09/05 04:03:56;;;;;;;8.13;4.75;;;;;;;13.48;46.81;101274.46;1773461;78;21069;-47
2022/09/05 04:06:48;;;;;;;7.35;4.58;;;;;;;13.47;47.08;101278.91;1772614;78;21048;-47
2022/09/05 04:09:47;;;;;;;11.73;4.83;;;;;;;13.50;47.02;101275.17;1747334;78;21102;-47
2022/09/05 04:12:27;;;;;;;9.40;4.75;;;;;;;13.54;47.11;101276.63;1772218;78;22018;-48
2022/09/05 04:15:07;;;;;;;8.25;4.80;;;;;;;13.54;47.19;101280.11;1775132;79;20984;-48
2022/09/05 04:17:38;;;;;;;8.40;4.72;;;;;;;13.55;46.73;101273.04;1749121;78;21362;-47
2022/09/05 04:20:33;;;;;;;8.35;5.15;;;;;;;13.55;46.85;101279.16;1763701;78;21058;-47
2022/09/05 04:23:50;;;;;;;10.28;5.12;;;;;;;13.55;46.73;101282.30;1773196;78;21108;-47
2022/09/05 04:26:41;;;;;;;10.03;5.28;;;;;;;13.56;46.58;101276.86;1778810;80;21228;-48
2022/09/05 04:29:41;;;;;;;9.70;4.90;;;;;;;13.56;46.46;101274.70;1777098;80;21065;-48
2022/09/05 04:32:36;;;;;;;10.32;5.92;;;;;;;13.58;46.65;101281.20;1774233;80;21595;-46
2022/09/05 04:35:27;;;;;;;9.90;5.42;;;;;;;13.60;46.67;101279.27;1771262;78;21678;-47
2022/09/05 04:38:14;;;;;;;9.50;5.30;;;;;;;13.60;46.84;101277.94;1778789;78;21050;-48
2022/09/05 04:40:59;;;;;;;10.70;5.58;;;;;;;13.59;47.11;101282.41;1774609;78;22282;-49
2022/09/05 04:43:36;;;;;;;8.45;5.28;;;;;;;13.60;47.26;101279.27;1771010;78;21069;-48
2022/09/05 04:46:18;;;;;;;10.82;6.35;;;;;;;13.61;47.20;101280.96;1780848;78;21099;-46
2022/09/05 04:49:06;;;;;;;12.00;5.87;;;;;;;13.61;47.29;101279.64;1778956;78;21042;-48
2022/09/05 04:52:20;;;;;;;9.98;6.00;;;;;;;13.62;47.29;101283.48;1776977;78;21144;-47
2022/09/05 04:55:01;;;;;;;10.00;6.03;;;;;;;13.62;47.36;101283.48;1757464;78;21140;-47
2022/09/05 04:57:48;;;;;;;8.83;5.42;;;;;;;13.64;47.54;101278.91;1776160;79;21048;-47
2022/09/05 05:00:38;;;;;;;12.28;5.70;;;;;;;13.66;47.68;101274.34;1777171;78;21312;-47
2022/09/05 05:03:12;;;;;;;12.28;5.95;;;;;;;13.71;47.98;101281.91;1777288;78;21018;-48
2022/09/05 05:05:57;;;;;;;10.60;6.12;;;;;;;13.75;48.03;101276.27;1778495;78;21046;-47
2022/09/05 05:08:48;;;;;;;12.33;6.50;;;;;;;13.83;48.22;101272.16;1774883;78;21134;-47
2022/09/05 05:11:38;;;;;;;10.08;5.80;;;;;;;13.91;48.24;101279.02;1774704;80;21504;-48
2022/09/05 05:14:21;;;;;;;9.35;5.70;;;;;;;13.98;48.06;101262.99;1778241;80;21092;-45
2022/09/05 05:16:58;;;;;;;10.05;5.58;;;;;;;14.08;47.92;101269.22;1773020;78;21488;-47
2022/09/05 05:19:31;;;;;;;11.83;5.75;;;;;;;14.17;47.75;101265.48;1777644;78;21122;-47
2022/09/05 05:22:00;;;;;;;9.28;5.83;;;;;;;14.26;47.70;101270.03;1774799;78;21162;-47
2022/09/05 05:24:35;;;;;;;9.08;5.55;;;;;;;14.35;47.88;101276.38;1769089;78;21140;-47
2022/09/05 05:27:27;;;;;;;12.05;6.08;;;;;;;14.45;47.59;101289.22;1777298;78;21631;-48
2022/09/05 05:30:04;;;;;;;9.93;5.65;;;;;;;14.51;47.47;101288.73;1767134;78;21014;-47
2022/09/05 05:32:46;;;;;;;10.63;6.67;;;;;;;14.59;47.45;101275.73;1739962;78;21066;-47
2022/09/05 05:35:21;;;;;;;8.90;5.87;;;;;;;14.69;47.31;101283.72;1769329;80;21730;-49
2022/09/05 05:38:22;;;;;;;9.50;6.17;;;;;;;14.81;47.56;101291.99;1770202;78;21077;-48
2022/09/05 05:42:46;;;;;;;10.88;6.22;;;;;;;15.14;47.48;101281.31;1787621;79;23301;-46
2022/09/05 05:45:25;;;;;;;8.78;5.80;;;;;;;15.23;47.01;101282.70;1737380;80;21129;-46
2022/09/05 05:48:12;;;;;;;11.28;5.80;;;;;;;15.29;46.97;101278.67;1709297;82;21138;-47
2022/09/05 05:51:05;;;;;;;11.57;6.60;;;;;;;15.33;46.89;101285.41;1714276;82;21762;-47
2022/09/05 05:53:56;;;;;;;11.15;5.70;;;;;;;15.41;46.53;101284.23;1716211;81;21144;-46
2022/09/05 05:56:47;;;;;;;10.60;6.40;;;;;;;15.50;46.43;101285.28;1700432;83;21121;-47
2022/09/05 05:59:53;;;;;;;11.88;5.42;;;;;;;15.55;46.28;101275.11;1694748;83;21057;-47
2022/09/05 06:02:55;;;;;;;7.83;5.05;;;;;;;15.58;46.17;101280.16;1691763;82;21147;-47
2022/09/05 06:06:03;;;;;;;11.90;6.85;;;;;;;15.60;46.21;101279.53;1703337;82;21594;-47
2022/09/05 06:09:24;;;;;;;10.70;6.60;;;;;;;15.63;46.26;101290.34;1708326;82;21046;-45
2022/09/05 06:12:10;;;;;;;10.63;6.47;;;;;;;15.67;46.79;101291.77;1707023;82;21105;-47
2022/09/05 06:14:49;;;;;;;11.28;6.45;;;;;;;15.74;46.96;101292.91;1710141;82;21098;-46
2022/09/05 06:17:24;;;;;;;9.60;6.53;;;;;;;15.83;46.75;101297.09;1702590;82;21133;-46
2022/09/05 06:20:08;;;;;;;9.88;6.35;;;;;;;15.88;46.65;101298.84;1702861;82;21054;-47
2022/09/05 06:22:59;;;;;;;10.13;6.03;;;;;;;15.89;46.31;101308.00;1700079;82;21050;-47
2022/09/05 06:26:14;;;;;;;11.83;6.75;;;;;;;15.93;46.53;101305.92;1701394;83;21086;-46
2022/09/05 06:29:30;;;;;;;11.35;6.42;;;;;;;15.93;46.30;101304.09;1713807;82;21146;-46
2022/09/05 06:32:13;;;;;;;26.62;15.20;;;;;;;15.91;46.39;101307.87;1699688;82;22047;-47
2022/09/05 06:34:49;;;;;;;21.25;10.72;;;;;;;15.85;46.44;101303.09;1704299;83;21075;-47
2022/09/05 06:37:29;;;;;;;18.35;8.48;;;;;;;15.82;46.64;101307.34;1707376;82;21093;-47
2022/09/05 06:40:24;;;;;;;14.43;7.12;;;;;;;15.84;46.81;101300.11;1708743;82;21581;-46
2022/09/05 06:43:28;;;;;;;13.10;7.00;;;;;;;15.88;46.83;101306.31;1691529;83;21058;-46
2022/09/05 06:46:29;;;;;;;11.35;7.35;;;;;;;15.99;46.37;101300.08;1699547;83;22006;-47
2022/09/05 06:49:19;;;;;;;14.38;7.87;;;;;;;16.09;46.18;101305.41;1644421;85;21119;-47
2022/09/05 06:52:22;;;;;;;10.28;6.45;;;;;;;16.20;46.30;101315.06;1607168;83;21130;-47
2022/09/05 06:55:31;;;;;;;10.13;6.28;;;;;;;16.36;46.21;101320.69;1625118;83;21062;-47
2022/09/05 06:58:15;;;;;;;13.40;5.97;;;;;;;16.54;45.49;101315.52;1702272;83;21664;-47
2022/09/05 07:00:56;;;;;;;10.08;6.37;;;;;;;16.69;45.53;101319.46;1694349;83;21850;-49
2022/09/05 07:04:01;;;;;;;10.30;5.83;;;;;;;16.85;45.59;101306.12;1673283;83;21525;-48
2022/09/05 07:06:42;;;;;;;10.18;6.60;;;;;;;17.06;45.76;101308.59;1691968;83;21110;-47
2022/09/05 07:09:28;;;;;;;13.10;6.05;;;;;;;17.27;45.10;101307.09;1708190;82;21050;-47
2022/09/05 07:12:13;;;;;;;11.08;6.97;;;;;;;17.46;45.12;101310.18;1706675;83;21099;-48
2022/09/05 07:14:51;;;;;;;11.88;6.62;;;;;;;17.67;45.12;101311.77;1693487;83;21165;-47
2022/09/05 07:17:25;;;;;;;12.75;6.95;;;;;;;17.81;44.24;101312.13;1701976;83;21101;-47
2022/09/05 07:19:58;;;;;;;12.65;6.72;;;;;;;17.92;44.15;101310.29;1686636;83;21498;-46
2022/09/05 07:22:40;;;;;;;9.00;5.65;;;;;;;17.97;44.64;101314.20;1699522;83;21098;-46
2022/09/05 07:25:16;;;;;;;11.70;6.97;;;;;;;17.99;44.57;101321.55;1701206;83;21088;-46
2022/09/05 07:28:04;;;;;;;13.48;7.75;;;;;;;17.98;44.70;101325.69;1697898;82;21860;-47
2022/09/05 07:30:32;;;;;;;13.60;7.97;;;;;;;17.96;45.34;101325.83;1698980;83;22380;-47
2022/09/05 07:32:58;;;;;;;12.75;8.18;;;;;;;17.95;45.09;101328.14;1687946;83;21076;-47
2022/09/05 07:35:29;;;;;;;13.90;8.90;;;;;;;17.94;45.83;101333.13;1691602;83;21102;-47
2022/09/05 07:38:12;;;;;;;50.45;36.80;;;;;;;17.94;45.88;101334.97;1694753;82;21542;-48
2022/09/05 07:40:40;;;;;;;71.80;56.58;;;;;;;17.91;46.71;101330.77;1692742;83;21140;-48
2022/09/05 07:43:20;;;;;;;102.42;80.83;;;;;;;17.89;46.92;101338.06;1694766;82;21549;-48
2022/09/05 07:46:10;;;;;;;132.03;95.12;;;;;;;17.84;46.66;101338.97;1692498;83;21138;-45
2022/09/05 07:48:54;;;;;;;136.75;106.72;;;;;;;17.80;47.01;101337.57;1699180;83;21770;-45
2022/09/05 07:51:24;;;;;;;139.88;105.75;;;;;;;17.78;47.64;101336.88;1698042;83;21082;-46
2022/09/05 07:53:53;;;;;;;134.27;98.80;;;;;;;17.83;47.31;101338.61;1706208;83;21135;-46
2022/09/05 07:56:41;;;;;;;158.85;114.08;;;;;;;17.87;46.16;101348.03;1704231;82;21054;-46
2022/09/05 07:59:11;;;;;;;148.82;110.97;;;;;;;17.88;46.81;101352.85;1694727;83;21380;-46
2022/09/05 08:01:42;;;;;;;160.28;124.05;;;;;;;17.88;46.48;101366.16;1698067;83;21117;-46
2022/09/05 08:04:23;;;;;;;172.70;129.18;;;;;;;17.85;47.35;101361.92;1693564;83;21062;-46
2022/09/05 08:06:53;;;;;;;172.80;128.82;;;;;;;17.86;47.11;101366.28;1695586;82;21761;-46
2022/09/05 08:09:40;;;;;;;171.80;124.62;;;;;;;17.82;47.82;101371.06;1705004;82;21067;-46
2022/09/05 08:12:22;;;;;;;192.30;145.47;;;;;;;17.70;47.77;101382.88;1708008;83;21079;-46
2022/09/05 08:15:21;;;;;;;194.02;140.62;;;;;;;17.49;46.04;101378.25;1698894;83;21042;-46
2022/09/05 08:18:19;;;;;;;140.32;105.45;;;;;;;17.31;46.95;101387.44;1693621;83;21078;-46
2022/09/05 08:21:15;;;;;;;119.53;86.05;;;;;;;17.06;47.30;101379.06;1703523;83;21253;-46
2022/09/05 08:23:55;;;;;;;115.95;86.00;;;;;;;16.79;47.94;101386.37;1685573;84;21567;-47
2022/09/05 08:26:48;;;;;;;105.90;76.02;;;;;;;16.56;49.10;101372.03;1691161;83;21134;-47
2022/09/05 08:29:40;;;;;;;104.07;69.95;;;;;;;16.42;50.92;101373.25;1706567;83;21077;-46
2022/09/05 08:32:12;;;;;;;79.75;58.90;;;;;;;16.30;51.22;101369.86;1695367;83;21135;-46
2022/09/05 08:35:00;;;;;;;80.20;56.80;;;;;;;16.22;52.31;101366.22;1705060;83;21153;-46
2022/09/05 08:37:27;;;;;;;73.47;55.00;;;;;;;16.14;54.26;101404.09;1700201;83;21540;-46
2022/09/05 08:39:56;;;;;;;73.78;53.10;;;;;;;16.04;55.00;101413.80;1693046;84;21060;-46
2022/09/05 08:42:48;;;;;;;75.45;52.90;;;;;;;15.93;56.02;101426.69;1667006;84;21079;-47
2022/09/05 08:45:28;;;;;;;69.05;48.35;;;;;;;15.82;57.09;101406.39;1680139;82;21530;-47
2022/09/05 08:48:08;;;;;;;66.90;45.52;;;;;;;15.81;56.62;101385.29;1694302;83;21239;-46
2022/09/05 08:51:03;;;;;;;63.80;46.35;;;;;;;15.83;56.72;101372.72;1698226;84;21135;-46
2022/09/05 08:54:14;;;;;;;68.92;47.00;;;;;;;15.81;57.45;101374.18;1692593;82;21402;-46
2022/09/05 08:56:58;;;;;;;62.50;41.75;;;;;;;15.87;57.72;101367.48;1636897;85;21120;-49
2022/09/05 08:59:50;;;;;;;55.60;42.33;;;;;;;15.91;57.40;101365.77;1691873;84;21063;-46
2022/09/05 09:03:12;;;;;;;59.90;45.85;;;;;;;15.95;58.03;101365.01;1686267;83;21168;-46
2022/09/05 09:05:57;;;;;;;62.98;47.43;;;;;;;15.96;57.72;101354.75;1686561;84;21029;-46
2022/09/05 09:08:38;;;;;;;68.95;49.58;;;;;;;15.95;56.79;101353.92;1689250;84;21546;-47
2022/09/05 09:11:29;;;;;;;60.83;44.45;;;;;;;15.95;57.34;101345.09;1696228;84;21028;-46
2022/09/05 09:14:34;;;;;;;60.38;45.25;;;;;;;16.01;56.93;101335.78;1681068;84;21086;-46
2022/09/05 09:17:24;;;;;;;55.90;43.78;;;;;;;16.11;56.68;101336.14;1678191;82;21142;-46
2022/09/05 09:20:30;;;;;;;54.73;41.15;;;;;;;16.27;57.14;101329.47;1684193;84;21067;-46
2022/09/05 09:23:16;;;;;;;49.98;37.10;;;;;;;16.50;57.58;101336.71;1684407;84;21562;-46
2022/09/05 09:25:48;;;;;;;49.33;36.70;;;;;;;16.81;56.82;101338.77;1688545;84;21578;-46
2022/09/05 09:28:44;;;;;;;46.63;34.43;;;;;;;16.95;55.90;101334.03;1677802;84;21070;-46
2022/09/05 09:31:56;;;;;;;43.78;34.27;;;;;;;17.12;55.89;101333.30;1688391;84;21316;-45
2022/09/05 09:34:28;;;;;;;33.02;24.92;;;;;;;17.34;55.83;101340.11;1688613;82;21117;-45
2022/09/05 09:37:13;;;;;;;36.15;27.20;;;;;;;17.39;54.23;101331.70;1688623;84;21102;-46
2022/09/05 09:40:15;;;;;;;37.98;28.92;;;;;;;17.40;53.54;101328.05;1687542;82;21064;-47
2022/09/05 09:42:49;;;;;;;37.28;29.20;;;;;;;17.48;53.91;101323.34;1684930;84;21067;-46
2022/09/05 09:45:30;;;;;;;32.65;23.10;;;;;;;17.54;53.94;101319.61;1702889;83;21099;-46
2022/09/05 09:48:16;;;;;;;31.45;22.87;;;;;;;17.61;53.50;101317.20;1692614;83;21075;-47
2022/09/05 09:51:10;;;;;;;29.37;20.37;;;;;;;17.74;53.44;101314.22;1737837;80;21098;-47
2022/09/05 09:54:20;;;;;;;30.65;21.73;;;;;;;17.87;53.18;101310.76;1726439;80;21054;-46
2022/09/05 09:57:12;;;;;;;31.12;22.65;;;;;;;17.96;52.75;101313.84;1737342;81;21483;-47
2022/09/05 10:00:04;;;;;;;26.30;17.85;;;;;;;18.06;52.91;101310.31;1738772;80;21290;-46
2022/09/05 10:03:01;;;;;;;21.85;15.28;;;;;;;18.09;51.82;101306.84;1738315;81;21087;-47
2022/09/05 10:05:39;;;;;;;16.30;12.00;;;;;;;18.12;50.87;101299.03;1724073;81;21074;-47
2022/09/05 10:08:20;;;;;;;18.17;12.50;;;;;;;18.21;49.72;101298.15;1726455;80;21118;-46
2022/09/05 10:11:07;;;;;;;15.43;10.45;;;;;;;18.33;49.00;101294.77;1726474;80;21012;-46
2022/09/05 10:14:12;;;;;;;16.05;11.55;;;;;;;18.48;47.32;101291.09;1724570;81;21126;-47
2022/09/05 10:16:55;;;;;;;17.07;10.90;;;;;;;18.66;47.29;101283.92;1737514;80;22421;-47
2022/09/05 10:19:37;;;;;;;17.77;11.12;;;;;;;18.91;47.48;101283.65;1718861;81;21059;-46
2022/09/05 10:22:36;;;;;;;12.75;9.38;;;;;;;19.08;46.30;101285.07;1731296;80;21070;-46
2022/09/05 10:25:40;;;;;;;11.95;8.38;;;;;;;19.13;42.45;101282.77;1716981;80;21558;-46
2022/09/05 10:28:37;;;;;;;13.43;8.13;;;;;;;19.08;42.10;101276.59;1726111;81;21294;-46
2022/09/05 10:31:18;;;;;;;14.58;8.40;;;;;;;19.05;43.21;101283.57;1728709;80;28324;-46
2022/09/05 10:34:15;;;;;;;13.45;8.80;;;;;;;19.05;43.64;101279.56;1722142;82;21005;-46
2022/09/05 10:36:41;;;;;;;10.78;7.03;;;;;;;19.10;43.51;101276.44;1701104;82;21071;-47
2022/09/05 10:39:18;;;;;;;9.18;5.28;;;;;;;19.15;42.53;101268.80;1697434;84;21003;-47
2022/09/05 10:41:48;;;;;;;8.58;5.00;;;;;;;19.22;41.58;101261.00;1698348;83;21147;-47
2022/09/05 10:44:23;;;;;;;7.75;4.20;;;;;;;19.30;41.46;101253.87;1671914;83;21066;-47
2022/09/05 10:47:34;;;;;;;12.33;6.10;;;;;;;19.39;39.42;101249.41;1692002;83;21537;-47
2022/09/05 10:50:12;;;;;;;14.65;6.62;;;;;;;19.39;40.09;101256.08;1696832;82;21222;-46
2022/09/05 10:53:03;;;;;;;12.07;7.62;;;;;;;19.37;40.70;101260.75;1705124;83;21157;-46
2022/09/05 10:55:59;;;;;;;10.68;7.80;;;;;;;19.32;41.90;101263.06;1695872;82;21869;-45
2022/09/05 10:59:00;;;;;;;13.38;6.42;;;;;;;19.28;42.36;101264.35;1625214;83;26888;-46
2022/09/05 11:01:41;;;;;;;9.48;6.45;;;;;;;19.26;41.62;101256.50;1736642;80;21063;-46
2022/09/05 11:04:16;;;;;;;10.50;6.58;;;;;;;19.36;41.47;101260.39;1698782;84;21175;-47
2022/09/05 11:07:15;;;;;;;11.43;7.25;;;;;;;19.45;41.15;101259.93;1665230;84;21529;-47
2022/09/05 11:10:20;;;;;;;12.33;6.37;;;;;;;19.49;41.28;101260.80;1693505;82;21144;-47
2022/09/05 11:12:55;;;;;;;9.75;5.35;;;;;;;19.48;41.60;101255.14;1731353;81;21074;-46
2022/09/05 11:15:42;;;;;;;7.83;4.08;;;;;;;19.25;41.65;101265.52;1738340;81;21522;-46
2022/09/05 11:18:18;;;;;;;10.35;4.35;;;;;;;19.00;42.62;101268.53;1720512;81;21146;-46
2022/09/05 11:21:02;;;;;;;7.03;3.52;;;;;;;18.79;43.84;101270.68;1738545;81;21055;-46
2022/09/05 11:23:42;;;;;;;7.60;3.70;;;;;;;18.65;43.37;101258.75;1702862;84;21219;-47
2022/09/05 11:26:39;;;;;;;6.70;3.50;;;;;;;18.53;43.64;101264.31;1691813;83;21027;-46
2022/09/05 11:29:24;;;;;;;7.05;3.12;;;;;;;18.53;44.32;101266.97;1687578;82;21054;-48
2022/09/05 11:32:24;;;;;;;10.63;3.90;;;;;;;18.56;42.78;101258.67;1694522;81;21063;-47
2022/09/05 11:35:21;;;;;;;6.72;3.47;;;;;;;18.64;43.28;101247.73;1733111;81;21300;-46
2022/09/05 11:37:59;;;;;;;7.95;3.80;;;;;;;18.83;43.42;101244.92;1705560;82;21148;-47
2022/09/05 11:41:18;;;;;;;6.85;3.22;;;;;;;19.14;43.03;101233.77;1711764;82;21055;-46
2022/09/05 11:44:13;;;;;;;7.90;3.77;;;;;;;19.42;41.23;101233.08;1699967;82;21165;-47
2022/09/05 11:47:12;;;;;;;8.03;4.15;;;;;;;19.60;38.44;101230.80;1704541;82;21077;-46
2022/09/05 11:50:18;;;;;;;7.10;3.77;;;;;;;19.53;37.51;101227.94;1701704;83;21043;-46
2022/09/05 11:52:59;;;;;;;7.43;5.07;;;;;;;19.47;38.13;101228.09;1725563;80;21749;-46
2022/09/05 11:55:51;;;;;;;9.43;5.12;;;;;;;19.38;38.66;101225.03;1736703;81;21000;-46
2022/09/05 11:58:49;;;;;;;10.03;5.08;;;;;;;19.28;39.74;101229.19;1738286;81;21028;-47
2022/09/05 12:01:33;;;;;;;10.78;5.72;;;;;;;19.20;40.50;101233.63;1713529;81;21067;-46
2022/09/05 12:04:29;;;;;;;10.45;6.20;;;;;;;19.04;40.51;101235.20;1689300;83;21066;-45
2022/09/05 12:07:10;;;;;;;9.38;5.95;;;;;;;18.88;41.87;101236.46;1702698;83;21082;-47
2022/09/05 12:09:54;;;;;;;10.70;5.30;;;;;;;18.71;42.55;101235.45;1702351;84;21026;-47
2022/09/05 12:12:26;;;;;;;13.32;6.37;;;;;;;18.60;42.75;101243.21;1694040;83;21157;-47
2022/09/05 12:15:28;;;;;;;10.53;5.15;;;;;;;18.47;42.86;101245.43;1695177;83;21046;-47
2022/09/05 12:18:14;;;;;;;11.57;5.90;;;;;;;18.40;44.29;101248.38;1734950;81;21082;-47
2022/09/05 12:20:56;;;;;;;9.58;5.67;;;;;;;18.31;44.89;101240.30;1733105;81;21188;-47
2022/09/05 12:23:51;;;;;;;10.63;5.60;;;;;;;18.29;45.25;101238.77;1691722;82;21549;-47
2022/09/05 12:26:37;;;;;;;9.78;6.00;;;;;;;18.30;45.20;101235.95;1726927;80;21545;-48
2022/09/05 12:29:08;;;;;;;10.20;5.78;;;;;;;18.32;45.42;101235.30;1731156;81;21118;-47
2022/09/05 12:31:45;;;;;;;10.10;6.17;;;;;;;18.40;45.52;101231.05;1728375;80;21788;-48
2022/09/05 12:34:17;;;;;;;9.90;5.58;;;;;;;18.58;45.42;101230.54;1719816;81;21915;-48
2022/09/05 12:36:47;;;;;;;8.68;6.05;;;;;;;18.81;44.36;101234.02;1723422;81;21043;-47
2022/09/05 12:39:43;;;;;;;10.10;6.47;;;;;;;19.04;44.40;101220.54;1728835;81;21078;-48
2022/09/05 12:42:21;;;;;;;22.30;8.25;;;;;;;19.26;43.92;101223.66;1703461;83;21022;-48
2022/09/05 12:45:09;;;;;;;13.35;7.72;;;;;;;19.41;43.49;101214.05;1738361;81;21545;-48
2022/09/05 12:48:21;;;;;;;13.53;5.47;;;;;;;19.52;42.90;101210.27;1731825;81;21771;-47
2022/09/05 12:51:15;;;;;;;10.50;5.70;;;;;;;19.65;41.36;101201.31;1712564;82;21030;-47
2022/09/05 12:53:45;;;;;;;8.38;5.12;;;;;;;19.89;41.42;101198.39;1718638;83;21053;-47
2022/09/05 12:56:28;;;;;;;9.98;4.53;;;;;;;20.26;40.89;101191.75;1709076;82;21129;-47
2022/09/05 12:58:55;;;;;;;7.10;3.67;;;;;;;20.60;39.92;101198.74;1707597;83;21117;-46
2022/09/05 13:01:30;;;;;;;8.15;4.45;;;;;;;20.86;36.64;101187.84;1699974;82;21138;-46